Map

Track Data

SID SEASON NUMBER BASIN SUBBASIN NAME ISO_TIME NATURE LAT LON WMO_WIND WMO_PRES WMO_AGENCY TRACK_TYPE DIST2LAND LANDFALL IFLAG USA_AGENCY USA_ATCF_ID USA_LAT USA_LON USA_RECORD USA_STATUS USA_WIND USA_PRES USA_SSHS USA_R34_NE USA_R34_SE USA_R34_SW USA_R34_NW USA_R50_NE USA_R50_SE USA_R50_SW USA_R50_NW USA_R64_NE USA_R64_SE USA_R64_SW USA_R64_NW USA_POCI USA_ROCI USA_RMW USA_EYE TOKYO_LAT TOKYO_LON TOKYO_GRADE TOKYO_WIND TOKYO_PRES TOKYO_R50_DIR TOKYO_R50_LONG TOKYO_R50_SHORT TOKYO_R30_DIR TOKYO_R30_LONG TOKYO_R30_SHORT TOKYO_LAND CMA_LAT CMA_LON CMA_CAT CMA_WIND CMA_PRES HKO_LAT HKO_LON HKO_CAT HKO_WIND HKO_PRES NEWDELHI_LAT NEWDELHI_LON NEWDELHI_GRADE NEWDELHI_WIND NEWDELHI_PRES NEWDELHI_CI NEWDELHI_DP NEWDELHI_POCI REUNION_LAT REUNION_LON REUNION_TYPE REUNION_WIND REUNION_PRES REUNION_TNUM REUNION_CI REUNION_RMW REUNION_R34_NE REUNION_R34_SE REUNION_R34_SW REUNION_R34_NW REUNION_R50_NE REUNION_R50_SE REUNION_R50_SW REUNION_R50_NW REUNION_R64_NE REUNION_R64_SE REUNION_R64_SW REUNION_R64_NW BOM_LAT BOM_LON BOM_TYPE BOM_WIND BOM_PRES BOM_TNUM BOM_CI BOM_RMW BOM_R34_NE BOM_R34_SE BOM_R34_SW BOM_R34_NW BOM_R50_NE BOM_R50_SE BOM_R50_SW BOM_R50_NW BOM_R64_NE BOM_R64_SE BOM_R64_SW BOM_R64_NW BOM_ROCI BOM_POCI BOM_EYE BOM_POS_METHOD BOM_PRES_METHOD NADI_LAT NADI_LON NADI_CAT NADI_WIND NADI_PRES WELLINGTON_LAT WELLINGTON_LON WELLINGTON_WIND WELLINGTON_PRES DS824_LAT DS824_LON DS824_STAGE DS824_WIND DS824_PRES TD9636_LAT TD9636_LON TD9636_STAGE TD9636_WIND TD9636_PRES TD9635_LAT TD9635_LON TD9635_WIND TD9635_PRES TD9635_ROCI NEUMANN_LAT NEUMANN_LON NEUMANN_CLASS NEUMANN_WIND NEUMANN_PRES MLC_LAT MLC_LON MLC_CLASS MLC_WIND MLC_PRES USA_GUST BOM_GUST BOM_GUST_PER REUNION_GUST REUNION_GUST_PER USA_SEAHGT USA_SEARAD_NE USA_SEARAD_SE USA_SEARAD_SW USA_SEARAD_NW STORM_SPEED STORM_DIR
1974114S13164 1974 35 SP MM TINA 1974-04-23 12:00:00 TS -12.5000 164.000 main 265 265 O________OO___ jtwc_sh SH341974 -12.5000 164.000 -1 -12.5000 164.000 TC -12.5000 164.000 2 16 101
1974114S13164 1974 35 SP MM TINA 1974-04-23 15:00:00 TS -12.6587 164.812 main 296 238 P________PP___ SH341974 -12.6555 164.812 -1 -12.6555 164.812 TC -12.6650 164.811 2 16 101
1974114S13164 1974 35 SP MM TINA 1974-04-23 18:00:00 TS -12.8043 165.600 main 238 204 O________OP___ jtwc_sh SH341974 -12.8000 165.600 -1 -12.8000 165.600 TC -12.8128 165.599 2 15 100
1974114S13164 1974 35 SP MM TINA 1974-04-23 21:00:00 TS -12.9246 166.337 main 204 190 P________PP___ SH341974 -12.9224 166.337 -1 -12.9224 166.337 TC -12.9292 166.337 2 15 97
1974114S13164 1974 35 SP MM TINA 1974-04-24 00:00:00 TS -12.9857 167.143 30 997 wellington main 197 197 O_______OOO_O_ jtwc_sh SH341974 -13.0000 167.000 -1 -12.9000 168.000 30 997 -13.0000 167.000 TC 35 -13.0000 167.000 2 -12.9000 168.000 TC 15 14 93
1974114S13164 1974 35 SP MM TINA 1974-04-24 03:00:00 TS -12.9892 167.747 main 224 224 P_______PPP_P_ SH341974 -13.0148 167.580 -1 -12.9350 168.248 30 997 -13.0148 167.580 TC 35 -13.0184 167.574 2 -12.8826 168.258 TC 15 11 90
1974114S13164 1974 35 SP MM TINA 1974-04-24 06:00:00 TS -12.9806 168.230 main 253 253 O_______POP_O_ jtwc_sh SH341974 -13.0000 168.100 -1 -12.9760 168.496 30 997 -13.0000 168.100 TC 35 -13.0058 168.088 2 -12.9000 168.500 TC 15 9 90
1974114S13164 1974 35 SP MM TINA 1974-04-24 09:00:00 TS -12.9963 168.652 main 282 282 P_______PPP_P_ SH341974 -12.9923 168.600 -1 -13.0289 168.747 30 997 -12.9923 168.600 TC 35 -12.9904 168.583 2 -12.9774 168.728 TC 15 8 94
1974114S13164 1974 35 SP MM TINA 1974-04-24 12:00:00 TS -13.0400 169.060 30 997 wellington main 311 310 O_______OOO_O_ jtwc_sh SH341974 -13.0000 169.100 -1 -13.1000 169.000 30 997 -13.0000 169.100 TC 35 -13.0000 169.100 2 -13.1000 169.000 TC 15 8 97
1974114S13164 1974 35 SP MM TINA 1974-04-24 15:00:00 TS -13.1017 169.509 main 335 335 P_______PPP_P_ SH341974 -13.0273 169.620 -1 -13.1971 169.265 30 997 -13.0273 169.620 TC 35 -13.0217 169.661 2 -13.2350 169.378 TC 17 9 100
1974114S13164 1974 35 SP MM TINA 1974-04-24 18:00:00 TS -13.2028 170.008 main 372 372 O_______POP_O_ jtwc_sh SH341974 -13.1000 170.200 -1 -13.3352 169.585 30 997 -13.1000 170.200 TC 35 -13.0787 170.255 2 -13.4000 169.800 TC 20 10 103
1974114S13164 1974 35 SP MM TINA 1974-04-24 21:00:00 TS -13.3382 170.547 main 413 413 P_______PPP_P_ SH341974 -13.2048 170.855 -1 -13.5308 170.013 30 997 -13.2048 170.855 TC 35 -13.1964 170.896 2 -13.5544 170.118 TC 20 12 107
1974114S13164 1974 35 SP MM TINA 1974-04-25 00:00:00 TS -13.5600 171.200 30 997 wellington main 468 468 O_______OOO_O_ jtwc_sh SH341974 -13.4000 171.600 -1 -13.8000 170.600 30 997 -13.4000 171.600 TC 35 -13.4000 171.600 2 -13.8000 170.600 TC 20 15 111
1974114S13164 1974 35 SP MM TINA 1974-04-25 03:00:00 TS -13.8947 172.016 main 524 524 P_______PPP_P_ SH341974 -13.7049 172.428 -1 -14.1616 171.377 30 997 -13.7049 172.428 TC 35 -13.6816 172.390 2 -14.2203 171.460 TC 20 18 114
1974114S13164 1974 35 SP MM TINA 1974-04-25 06:00:00 TS -14.3081 172.932 main 591 503 O_______POP_O_ jtwc_sh SH341974 -14.1000 173.300 -1 -14.5902 172.317 30 997 -14.1000 173.300 TC 35 -14.0504 173.241 2 -14.7000 172.500 TC 20 20 115
1974114S13164 1974 35 SP MM TINA 1974-04-25 09:00:00 TS -14.7348 173.856 main 495 393 P_______PPP_P_ SH341974 -14.5123 174.158 -1 -15.0485 173.374 30 997 -14.5123 174.158 TC 35 -14.4939 174.122 2 -15.1068 173.471 TC 20 20 116
1974114S13164 1974 35 SP MM TINA 1974-04-25 12:00:00 TS -15.2000 174.800 30 997 wellington main 386 278 O_______OOO_O_ jtwc_sh SH341974 -15.0000 175.000 -1 -15.5000 174.500 30 997 -15.0000 175.000 TC 35 -15.0000 175.000 2 -15.5000 174.500 TC 20 21 119
1974114S13164 1974 35 SP MM TINA 1974-04-25 15:00:00 TS -15.7259 175.731 main 278 174 P_______PPP_P_ SH341974 -15.5771 175.800 -1 -15.9346 175.645 32 995 -15.5771 175.800 TC 35 -15.6336 175.790 2 -15.9071 175.620 TC 22 21 121
1974114S13164 1974 35 SP MM TINA 1974-04-25 18:00:00 TS -16.2715 176.684 main 159 78 O_______POP_O_ jtwc_sh SH341974 -16.2000 176.600 -1 -16.3484 176.841 35 993 -16.2000 176.600 TC 35 -16.3091 176.579 2 -16.3000 176.800 TC 25 22 121
1974114S13164 1974 35 SP MM TINA 1974-04-25 21:00:00 TS -16.8204 177.664 main 74 24 P_______PPP_P_ SH341974 -16.8820 177.427 -1 -16.7127 178.041 37 991 -16.8820 177.427 TC 35 -16.9301 177.405 2 -16.6949 178.022 TC 25 21 117
1974114S13164 1974 35 SP MM TINA 1974-04-26 00:00:00 TS -17.2400 178.660 40 990 wellington main 22 22 O_______OOO_O_ jtwc_sh SH341974 -17.4000 178.300 -1 -17.0000 179.200 40 990 -17.4000 178.300 TC 35 -17.4000 178.300 2 -17.0000 179.200 TC 25 20 106
1974114S13164 1974 35 SP MM TINA 1974-04-26 03:00:00 TS -17.3747 179.627 main 67 67 P_______PPP_P_ SH341974 -17.5391 179.199 -1 -17.1271 -179.757 43 987 -17.5391 179.199 TC 35 -17.5316 179.266 2 -17.1365 -179.769 TC 27 19 94
1974114S13164 1974 35 SP MM TINA 1974-04-26 06:00:00 TS -17.3805 180.628 main 100 100 O_______POP_O_ jtwc_sh SH341974 -17.5000 -179.800 -1 -17.1882 -178.764 47 985 -17.5000 180.200 TC 35 -17.5144 -179.697 2 -17.2000 -178.800 TC 30 20 90
1974114S13164 1974 35 SP MM TINA 1974-04-26 09:00:00 TS -17.3813 181.699 main 202 202 P_______PPP_P_ SH341974 -17.4620 -178.659 -1 -17.2554 -177.788 51 982 -17.4620 -178.659 TC 35 -17.4651 -178.587 2 -17.2618 -177.814 TC 32 21 92
1974114S13164 1974 35 SP MM TINA 1974-04-26 12:00:00 TS -17.4600 182.840 55 980 wellington main 317 317 O_______OOO_O_ jtwc_sh SH341974 -17.5000 -177.400 -1 -17.4000 -176.800 55 980 -17.5000 182.600 TC 35 -17.5000 -177.400 2 -17.4000 -176.800 TC 35 23 98
1974114S13164 1974 35 SP MM TINA 1974-04-26 15:00:00 TS -17.7139 184.046 main 446 446 P_______PPP_P_ SH341974 -17.7320 -176.072 -1 -17.6659 -175.796 55 980 -17.7320 -176.072 TC 35 -17.7422 -176.121 2 -17.6973 -175.708 TC 37 24 105
1974114S13164 1974 35 SP MM TINA 1974-04-26 18:00:00 TS -18.0816 185.294 main 531 521 O_______POP_O_ jtwc_sh SH341974 -18.1000 -174.700 -1 -18.0226 -174.765 55 980 -18.1000 185.300 TC 35 -18.0854 -174.767 2 -18.1000 -174.600 TC 40 25 108
1974114S13164 1974 35 SP MM TINA 1974-04-26 21:00:00 TS -18.5011 186.534 main 534 532 P_______PPP_P_ SH341974 -18.5117 -173.342 -1 -18.4681 -173.676 55 980 -18.5117 -173.342 TC 35 -18.5106 -173.379 2 -18.5034 -173.593 TC 37 26 111
1974114S13164 1974 35 SP MM TINA 1974-04-27 00:00:00 TS -19.0000 187.800 55 980 wellington main 581 581 O_______OOO_O_ jtwc_sh SH341974 -19.0000 -172.000 -1 -19.0000 -172.500 55 980 -19.0000 188.000 TC 35 -19.0000 -172.000 2 -19.0000 -172.500 TC 35 26 114
1974114S13164 1974 35 SP MM TINA 1974-04-27 03:00:00 TS -19.5509 189.086 main 663 663 P_______PPP_P_ SH341974 -19.5264 -170.692 -1 -19.6068 -171.284 48 984 -19.5264 -170.692 TC 35 -19.4824 -170.749 2 -19.6126 -171.152 TC 32 27 115
1974114S13164 1974 35 SP MM TINA 1974-04-27 06:00:00 TS -20.1632 190.406 main 767 767 O_______POP_O_ jtwc_sh SH341974 -20.1000 -169.400 -1 -20.2884 -169.965 42 988 -20.1000 190.600 TC 35 -20.0274 -169.503 2 -20.3000 -169.700 TC 30 28 117
1974114S13164 1974 35 SP MM TINA 1974-04-27 09:00:00 TS -20.7934 191.717 main 885 885 P_______PPP_P_ SH341974 -20.6676 -168.157 -1 -21.0009 -168.513 36 992 -20.6676 -168.157 TC 35 -20.6341 -168.206 2 -20.9966 -168.380 TC 25 29 117
1974114S13164 1974 35 SP MM TINA 1974-04-27 12:00:00 TS -21.4600 193.160 30 997 wellington main 1033 1033 O_______OOO_O_ jtwc_sh SH341974 -21.3000 -166.800 -1 -21.7000 -166.900 30 997 -21.3000 193.200 TC 35 -21.3000 -166.800 2 -21.7000 -166.900 TC 20 33 115
1974114S13164 1974 35 SP MM TINA 1974-04-27 15:00:00 TS -22.1744 194.887 main 1202 1202 P_______PPP_P_ SH341974 -22.0273 -165.167 -1 -22.3486 -165.107 30 997 -22.0273 -165.167 TC 35 -22.0890 -165.084 2 -22.3801 -165.040 TC 17 36 113
1974114S13164 1974 35 SP MM TINA 1974-04-27 18:00:00 TS -22.8818 196.737 main 1384 1384 O_______POP_O_ jtwc_sh SH341974 -22.8000 -163.400 -1 -22.9439 -163.162 30 997 -22.8000 196.600 TC 35 -22.9101 -163.262 2 -23.0000 -163.000 TC 15 37 113
1974114S13164 1974 35 SP MM TINA 1974-04-27 21:00:00 TS -23.5982 198.583 main 1578 1578 P_______PPP_P_ SH341974 -23.6034 -161.569 -1 -23.4919 -161.111 30 997 -23.6034 -161.569 TC 35 -23.6746 -161.483 2 -23.5312 -160.985 TC 15 35 113
1974114S13164 1974 35 SP MM TINA 1974-04-28 00:00:00 TS -24.2571 200.229 30 997 wellington main 1752 1752 O_______OOO_O_ jtwc_sh SH341974 -24.3000 -159.900 -1 -24.0000 -159.000 30 997 -24.3000 200.100 TC 35 -24.3000 -159.900 2 -24.0000 -159.000 TC 15 28 115
1974114S13164 1974 35 SP MM TINA 1974-04-28 03:00:00 TS -24.7743 201.390 main 1881 1881 P________PP___ SH341974 -24.7952 -158.598 -1 -24.7952 -158.598 TC 35 -24.7324 -158.633 2 TC 21 113
1974114S13164 1974 35 SP MM TINA 1974-04-28 06:00:00 TS -25.0692 202.388 main 1982 1982 O________OP___ jtwc_sh SH341974 -25.1000 -157.600 -1 -25.1000 202.400 TC 35 -25.0077 -157.637 2 17 105
1974114S13164 1974 35 SP MM TINA 1974-04-28 09:00:00 TS -25.2224 203.192 main 2053 2053 P________PP___ SH341974 -25.2436 -156.800 -1 -25.2436 -156.800 TC 35 -25.1799 -156.823 2 14 100
1974114S13164 1974 35 SP MM TINA 1974-04-28 12:00:00 TS -25.3000 203.900 main 2117 O________OO___ jtwc_sh SH341974 -25.3000 -156.100 -1 -25.3000 203.900 TC 35 -25.3000 -156.100 2 13 97

Digital Typhoon Data and Search

About IBTrACS Database

This database is a web-friendly format of International Best Track Archive for Climate Stewardship (IBTrACS), a global best track data archive curated by NOAA dating back to 1842.

Updated: 2021-12-01